Time;durP1;ratioP1;P1;durP2;ratioP2;P2;SDS_P1;SDS_P2;PMS_P1;PMS_P2;Temp;Humidity;BMP_temperature;BMP_pressure;BME280_temperature;BME280_humidity;BME280_pressure;Samples;Min_cycle;Max_cycle;Signal;HPM_P1;HPM_P2
2022/03/16 00:00:25;;;;;;;19.27;12.35;;;5.90;99.90;;;;;;478538;248;27529;-74
2022/03/16 00:02:26;;;;;;;19.10;12.65;;;6.00;99.90;;;;;;478567;248;27612;-70
2022/03/16 00:04:27;;;;;;;19.08;12.07;;;5.90;99.90;;;;;;478573;248;27601;-70
2022/03/16 00:06:29;;;;;;;20.27;13.62;;;5.80;99.90;;;;;;478601;248;27557;-70
2022/03/16 00:08:31;;;;;;;23.87;14.48;;;5.80;99.90;;;;;;478604;248;28064;-73
2022/03/16 00:10:31;;;;;;;22.87;13.07;;;5.80;99.90;;;;;;478538;248;27658;-70
2022/03/16 00:12:32;;;;;;;23.40;13.70;;;5.80;99.90;;;;;;478574;248;27531;-74
2022/03/16 00:14:34;;;;;;;20.95;12.75;;;5.80;99.90;;;;;;478659;248;27485;-71
2022/03/16 00:16:35;;;;;;;19.48;12.10;;;5.80;99.90;;;;;;478583;248;27528;-72
2022/03/16 00:18:36;;;;;;;18.62;11.93;;;5.90;99.90;;;;;;478596;248;28048;-70
2022/03/16 00:20:37;;;;;;;19.50;12.37;;;5.90;99.90;;;;;;478528;248;27509;-70
2022/03/16 00:22:39;;;;;;;17.73;11.02;;;5.80;99.90;;;;;;478591;248;27540;-74
2022/03/16 00:24:40;;;;;;;20.33;12.32;;;5.90;99.90;;;;;;478568;248;27495;-72
2022/03/16 00:26:41;;;;;;;19.77;12.63;;;5.90;99.90;;;;;;478589;248;27529;-71
2022/03/16 00:28:42;;;;;;;20.92;14.20;;;5.80;99.90;;;;;;478562;245;27965;-71
2022/03/16 00:30:44;;;;;;;20.30;12.88;;;5.80;99.90;;;;;;478581;245;27496;-71
2022/03/16 00:32:45;;;;;;;17.40;11.85;;;5.90;99.90;;;;;;478611;248;27527;-73
2022/03/16 00:34:46;;;;;;;18.95;12.27;;;5.90;99.90;;;;;;478612;245;27582;-73
2022/03/16 00:36:48;;;;;;;24.05;14.20;;;5.80;99.90;;;;;;478567;248;27608;-74
2022/03/16 00:38:49;;;;;;;17.98;11.77;;;5.80;99.90;;;;;;478563;248;28727;-70
2022/03/16 00:40:50;;;;;;;22.62;13.60;;;5.80;99.90;;;;;;478576;248;27570;-71
2022/03/16 00:42:51;;;;;;;18.90;12.50;;;5.80;99.90;;;;;;478590;248;27551;-74
2022/03/16 00:44:53;;;;;;;16.80;11.63;;;5.80;99.90;;;;;;478544;248;27568;-72
2022/03/16 00:46:54;;;;;;;18.08;12.10;;;5.90;99.90;;;;;;478559;248;27528;-71
2022/03/16 00:48:55;;;;;;;15.85;10.70;;;5.90;99.90;;;;;;478567;245;28131;-73
2022/03/16 00:50:56;;;;;;;14.77;9.80;;;6.00;99.90;;;;;;478627;248;27505;-73
2022/03/16 00:52:58;;;;;;;14.75;9.50;;;6.00;99.90;;;;;;478567;248;27536;-70
2022/03/16 00:54:59;;;;;;;13.88;9.30;;;6.00;99.90;;;;;;478637;248;27506;-73
2022/03/16 00:57:01;;;;;;;12.95;9.55;;;6.00;99.90;;;;;;478533;248;27517;-71
2022/03/16 00:59:02;;;;;;;10.13;7.60;;;6.00;99.90;;;;;;478613;248;28088;-75
2022/03/16 01:01:04;;;;;;;12.63;8.25;;;6.00;99.90;;;;;;478578;248;27965;-73
2022/03/16 01:03:05;;;;;;;11.77;8.25;;;6.00;99.90;;;;;;478577;248;27586;-72
2022/03/16 01:05:06;;;;;;;19.08;11.85;;;6.00;99.90;;;;;;478597;248;28110;-71
2022/03/16 01:07:07;;;;;;;16.52;11.10;;;5.90;99.90;;;;;;478572;245;27608;-72
2022/03/16 01:09:09;;;;;;;14.63;10.35;;;5.90;99.90;;;;;;478555;248;27532;-73
2022/03/16 01:11:10;;;;;;;16.27;9.98;;;6.00;99.90;;;;;;478584;248;27535;-73
2022/03/16 01:13:11;;;;;;;15.00;10.02;;;6.00;99.90;;;;;;478561;248;27556;-73
2022/03/16 01:15:13;;;;;;;15.00;9.20;;;6.00;99.90;;;;;;478543;248;28117;-73
2022/03/16 01:17:14;;;;;;;18.02;11.52;;;6.00;99.90;;;;;;478572;248;27963;-72
2022/03/16 01:19:15;;;;;;;20.73;11.60;;;5.90;99.90;;;;;;478540;248;27650;-73
2022/03/16 01:21:22;;;;;;;20.27;13.80;;;5.90;99.90;;;;;;478590;248;27520;-74
2022/03/16 01:23:23;;;;;;;16.45;11.23;;;5.90;99.90;;;;;;478570;248;27579;-71
2022/03/16 01:25:25;;;;;;;17.00;10.77;;;5.90;99.90;;;;;;478555;248;28042;-72
2022/03/16 01:27:26;;;;;;;16.10;10.57;;;5.90;99.90;;;;;;478548;248;27509;-71
2022/03/16 01:29:27;;;;;;;15.00;10.10;;;6.00;99.90;;;;;;478572;248;27533;-74
2022/03/16 01:31:29;;;;;;;15.48;10.40;;;6.00;99.90;;;;;;478596;248;27528;-74
2022/03/16 01:33:31;;;;;;;19.33;12.27;;;6.00;99.90;;;;;;478567;248;27548;-72
2022/03/16 01:35:32;;;;;;;16.87;10.85;;;5.90;99.90;;;;;;478579;248;28026;-70
2022/03/16 01:37:33;;;;;;;18.73;12.00;;;5.90;99.90;;;;;;478576;248;27519;-71
2022/03/16 01:39:35;;;;;;;17.67;10.80;;;5.90;99.90;;;;;;478587;248;27530;-72
2022/03/16 01:41:36;;;;;;;16.50;11.70;;;5.90;99.90;;;;;;478544;248;27500;-73
2022/03/16 01:43:37;;;;;;;19.20;12.95;;;5.90;99.90;;;;;;478550;248;27538;-72
2022/03/16 01:45:39;;;;;;;18.45;12.60;;;5.90;99.90;;;;;;478561;248;28057;-72
2022/03/16 01:47:40;;;;;;;16.52;11.20;;;5.90;99.90;;;;;;478560;248;27538;-73
2022/03/16 01:49:41;;;;;;;17.70;11.73;;;5.90;99.90;;;;;;478564;248;27596;-75
2022/03/16 01:51:42;;;;;;;15.20;10.90;;;6.00;99.90;;;;;;478549;248;27531;-74
2022/03/16 01:53:43;;;;;;;12.50;9.50;;;6.00;99.90;;;;;;478559;248;27547;-73
2022/03/16 01:55:45;;;;;;;12.32;9.23;;;6.10;99.90;;;;;;478557;248;27951;-73
2022/03/16 01:57:46;;;;;;;14.07;10.07;;;6.00;99.90;;;;;;478553;248;27986;-72
2022/03/16 01:59:47;;;;;;;12.68;9.65;;;6.00;99.90;;;;;;478586;248;27628;-72
2022/03/16 02:01:48;;;;;;;11.50;7.70;;;6.10;99.90;;;;;;478537;248;27492;-73
2022/03/16 02:03:50;;;;;;;10.13;7.55;;;6.10;99.90;;;;;;478565;248;27535;-70
2022/03/16 02:05:51;;;;;;;13.13;8.80;;;6.20;99.90;;;;;;478580;248;27572;-70
2022/03/16 02:07:52;;;;;;;12.18;8.27;;;6.10;99.90;;;;;;478565;248;28027;-72
2022/03/16 02:09:53;;;;;;;10.63;8.32;;;6.20;99.90;;;;;;478611;248;27521;-73
2022/03/16 02:11:55;;;;;;;11.93;8.37;;;6.10;99.90;;;;;;478599;248;27566;-72
2022/03/16 02:16:13;;;;;;;12.23;9.00;;;6.00;99.90;;;;;;486553;239;27993;-71
2022/03/16 02:18:15;;;;;;;12.85;8.60;;;6.00;99.90;;;;;;474116;251;27423;-70
2022/03/16 02:20:16;;;;;;;10.63;8.07;;;6.00;99.90;;;;;;487311;243;27917;-70
2022/03/16 02:22:17;;;;;;;13.00;8.50;;;6.00;99.90;;;;;;487277;244;27859;-72
2022/03/16 02:24:18;;;;;;;12.05;8.60;;;6.00;99.90;;;;;;487275;244;27412;-70
2022/03/16 02:26:20;;;;;;;13.85;10.05;;;5.90;99.90;;;;;;487306;244;27385;-71
2022/03/16 02:28:22;;;;;;;15.07;10.82;;;5.90;99.90;;;;;;487294;243;27860;-70
2022/03/16 02:30:22;;;;;;;15.13;10.75;;;5.90;99.90;;;;;;487267;243;27408;-72
2022/03/16 02:32:23;;;;;;;14.20;10.05;;;5.90;99.90;;;;;;487291;244;27413;-72
2022/03/16 02:34:25;;;;;;;13.07;9.15;;;6.00;99.90;;;;;;487232;244;27515;-72
2022/03/16 02:36:26;;;;;;;14.93;9.40;;;6.00;99.90;;;;;;487273;244;27426;-73
2022/03/16 02:38:27;;;;;;;12.93;9.40;;;6.00;99.90;;;;;;487281;244;29340;-72
2022/03/16 02:40:29;;;;;;;15.98;8.80;;;6.00;99.90;;;;;;487269;244;27907;-73
2022/03/16 02:42:30;;;;;;;10.68;7.82;;;6.00;99.90;;;;;;487269;244;27388;-70
2022/03/16 02:44:31;;;;;;;13.62;8.45;;;6.00;99.90;;;;;;487261;244;27491;-70
2022/03/16 02:46:32;;;;;;;10.20;7.62;;;6.10;99.90;;;;;;487286;244;27767;-74
2022/03/16 02:48:34;;;;;;;10.10;7.68;;;6.10;99.90;;;;;;487287;244;27432;-70
2022/03/16 02:50:35;;;;;;;11.55;8.35;;;6.10;99.90;;;;;;487272;244;27903;-71
2022/03/16 02:52:36;;;;;;;12.40;9.13;;;6.00;99.90;;;;;;487225;244;27872;-73
2022/03/16 02:54:37;;;;;;;12.60;8.25;;;6.00;99.90;;;;;;487270;244;27413;-71
2022/03/16 02:56:39;;;;;;;12.13;8.75;;;6.00;99.90;;;;;;487272;244;27456;-70
2022/03/16 02:58:40;;;;;;;9.00;7.30;;;6.00;99.90;;;;;;487298;244;27436;-70
2022/03/16 03:00:41;;;;;;;11.50;7.83;;;6.10;99.90;;;;;;487319;244;27401;-70
2022/03/16 03:02:44;;;;;;;8.90;7.65;;;6.10;99.90;;;;;;487289;244;27672;-70
2022/03/16 03:04:46;;;;;;;10.30;7.95;;;6.10;99.90;;;;;;487250;244;28006;-73
2022/03/16 03:06:47;;;;;;;13.57;8.93;;;6.00;99.90;;;;;;487276;244;27508;-70
2022/03/16 03:08:48;;;;;;;10.90;8.43;;;6.00;99.90;;;;;;487297;244;27826;-70
2022/03/16 03:10:49;;;;;;;14.30;9.30;;;6.00;99.90;;;;;;487268;244;28005;-75
2022/03/16 03:12:51;;;;;;;12.93;8.55;;;6.00;99.90;;;;;;487282;244;27382;-70
2022/03/16 03:14:52;;;;;;;14.57;9.10;;;6.00;99.90;;;;;;487282;244;27420;-70
2022/03/16 03:16:53;;;;;;;12.43;9.05;;;6.00;99.90;;;;;;486622;244;28147;-72
2022/03/16 03:18:54;;;;;;;13.45;9.70;;;6.00;99.90;;;;;;486263;244;27901;-74
2022/03/16 03:20:56;;;;;;;12.05;8.40;;;6.00;99.90;;;;;;486279;244;27491;-71
2022/03/16 03:22:57;;;;;;;15.05;10.80;;;6.00;99.90;;;;;;486263;244;27464;-70
2022/03/16 03:24:58;;;;;;;17.73;12.23;;;5.90;99.90;;;;;;486248;244;27418;-70
2022/03/16 03:27:00;;;;;;;20.85;12.70;;;5.90;99.90;;;;;;486309;244;27944;-72
2022/03/16 03:29:01;;;;;;;18.17;11.73;;;5.90;99.90;;;;;;486242;244;28011;-71
2022/03/16 03:31:03;;;;;;;18.50;11.70;;;5.90;99.90;;;;;;486278;244;27528;-70
2022/03/16 03:33:03;;;;;;;18.30;12.37;;;5.90;99.90;;;;;;486281;243;27454;-70
2022/03/16 03:35:05;;;;;;;19.05;11.82;;;6.00;99.90;;;;;;486282;244;27910;-71
2022/03/16 03:37:09;;;;;;;19.60;12.75;;;6.00;99.90;;;;;;486293;244;27420;-71
2022/03/16 03:39:10;;;;;;;19.27;12.60;;;6.00;99.90;;;;;;486280;243;27452;-70
2022/03/16 03:41:11;;;;;;;20.25;12.90;;;5.90;99.90;;;;;;486299;243;27377;-71
2022/03/16 03:43:12;;;;;;;21.25;12.65;;;6.00;99.90;;;;;;486326;243;27885;-71
2022/03/16 03:45:15;;;;;;;21.08;13.77;;;6.00;99.90;;;;;;486286;244;27454;-72
2022/03/16 03:47:16;;;;;;;21.42;13.52;;;5.90;99.90;;;;;;486287;243;27390;-70
2022/03/16 03:49:18;;;;;;;22.20;13.13;;;5.90;99.90;;;;;;486269;243;27905;-72
2022/03/16 03:51:20;;;;;;;20.12;13.50;;;6.00;99.90;;;;;;486288;244;27452;-72
2022/03/16 03:53:21;;;;;;;22.00;14.35;;;5.90;99.90;;;;;;486268;244;27401;-73
2022/03/16 03:55:23;;;;;;;20.85;13.35;;;5.90;99.90;;;;;;486249;244;27413;-72
2022/03/16 03:57:23;;;;;;;26.48;14.82;;;5.90;99.90;;;;;;486282;243;27413;-70
2022/03/16 03:59:25;;;;;;;26.55;15.35;;;5.90;99.90;;;;;;486284;244;28037;-71
2022/03/16 04:01:26;;;;;;;29.42;16.65;;;5.90;99.90;;;;;;486274;244;27374;-71
2022/03/16 04:03:27;;;;;;;28.15;16.00;;;5.90;99.90;;;;;;486261;244;27545;-73
2022/03/16 04:05:28;;;;;;;25.00;14.90;;;5.80;99.90;;;;;;486266;244;27377;-73
2022/03/16 04:07:30;;;;;;;24.55;14.95;;;5.80;99.90;;;;;;486289;244;27398;-70
2022/03/16 04:09:31;;;;;;;27.98;15.65;;;5.80;99.90;;;;;;486263;244;27907;-74
2022/03/16 04:11:32;;;;;;;25.52;14.93;;;5.90;99.90;;;;;;486281;244;27436;-73
2022/03/16 04:13:34;;;;;;;30.58;15.80;;;5.90;99.90;;;;;;486285;244;27484;-72
2022/03/16 04:15:35;;;;;;;26.80;15.35;;;5.80;99.90;;;;;;486314;243;27483;-72
2022/03/16 04:17:36;;;;;;;28.50;17.95;;;5.80;99.90;;;;;;486301;244;27396;-72
2022/03/16 04:19:37;;;;;;;32.80;18.10;;;5.80;99.90;;;;;;486280;243;28018;-73
2022/03/16 04:21:39;;;;;;;32.65;19.48;;;5.80;99.90;;;;;;486308;244;27482;-72
2022/03/16 04:23:40;;;;;;;28.50;18.08;;;5.80;99.90;;;;;;486279;244;27406;-73
2022/03/16 04:25:41;;;;;;;33.38;18.10;;;5.80;99.90;;;;;;486289;244;27477;-77
2022/03/16 04:27:42;;;;;;;29.30;16.85;;;5.80;99.90;;;;;;486295;244;27382;-72
2022/03/16 04:29:44;;;;;;;28.00;16.02;;;5.80;99.90;;;;;;486279;243;27969;-72
2022/03/16 04:31:45;;;;;;;29.65;17.12;;;5.80;99.90;;;;;;486293;244;27411;-70
2022/03/16 04:33:46;;;;;;;30.45;17.83;;;5.80;99.90;;;;;;486275;244;27493;-72
2022/03/16 04:35:48;;;;;;;30.75;18.05;;;5.80;99.90;;;;;;486296;244;27420;-72
2022/03/16 04:37:49;;;;;;;29.90;17.80;;;5.80;99.90;;;;;;486267;244;27425;-72
2022/03/16 04:39:52;;;;;;;28.00;17.40;;;5.80;99.90;;;;;;486311;244;27517;-72
2022/03/16 04:41:54;;;;;;;29.50;18.25;;;5.80;99.90;;;;;;486275;244;28815;-72
2022/03/16 04:43:55;;;;;;;28.60;18.90;;;5.90;99.90;;;;;;486276;243;27905;-70
2022/03/16 04:45:56;;;;;;;28.58;17.98;;;5.80;99.90;;;;;;486339;244;27420;-73
2022/03/16 04:47:57;;;;;;;34.30;19.83;;;5.80;99.90;;;;;;486235;244;27953;-72
2022/03/16 04:49:59;;;;;;;27.95;16.77;;;5.80;99.90;;;;;;486270;244;27418;-71
2022/03/16 04:52:00;;;;;;;32.42;18.83;;;5.80;99.90;;;;;;486293;243;27410;-70
2022/03/16 04:54:01;;;;;;;36.13;19.37;;;5.80;99.90;;;;;;486257;244;27526;-73
2022/03/16 04:56:02;;;;;;;32.72;19.08;;;5.80;99.90;;;;;;486293;244;27505;-72
2022/03/16 04:58:04;;;;;;;33.63;19.67;;;5.80;99.90;;;;;;486294;244;27965;-69
2022/03/16 05:00:05;;;;;;;29.52;18.92;;;5.80;99.90;;;;;;486273;244;27457;-71
2022/03/16 05:02:06;;;;;;;35.30;20.83;;;5.80;99.90;;;;;;486268;243;27489;-74
2022/03/16 05:04:07;;;;;;;34.97;20.27;;;5.70;99.90;;;;;;486264;244;27429;-73
2022/03/16 05:06:10;;;;;;;32.92;19.20;;;5.70;99.90;;;;;;486235;244;27413;-73
2022/03/16 05:08:11;;;;;;;28.33;17.98;;;5.80;99.90;;;;;;486262;243;27409;-72
2022/03/16 05:10:13;;;;;;;31.00;18.92;;;5.80;99.90;;;;;;486267;243;27982;-72
2022/03/16 05:12:14;;;;;;;30.37;18.58;;;5.80;99.90;;;;;;486261;243;27383;-72
2022/03/16 05:14:15;;;;;;;37.95;21.05;;;5.80;99.90;;;;;;486241;244;27412;-69
2022/03/16 05:16:16;;;;;;;33.72;20.95;;;5.70;99.90;;;;;;486250;244;27450;-72
2022/03/16 05:18:17;;;;;;;36.75;20.92;;;5.70;99.90;;;;;;486254;244;27485;-70
2022/03/16 05:20:19;;;;;;;33.50;20.60;;;5.70;99.90;;;;;;486228;243;27920;-74
2022/03/16 05:22:20;;;;;;;38.20;20.65;;;5.70;99.90;;;;;;486272;243;27414;-70
2022/03/16 05:24:22;;;;;;;33.80;20.48;;;5.80;99.90;;;;;;486239;244;27405;-70
2022/03/16 05:26:23;;;;;;;39.80;22.60;;;5.70;99.90;;;;;;486165;244;27409;-73
2022/03/16 05:28:24;;;;;;;36.63;21.37;;;5.70;99.90;;;;;;486267;244;27408;-73
2022/03/16 05:30:26;;;;;;;37.03;21.25;;;5.70;99.90;;;;;;486260;244;28037;-72
2022/03/16 05:32:26;;;;;;;35.75;20.45;;;5.80;99.90;;;;;;486279;243;27393;-71
2022/03/16 05:34:28;;;;;;;39.25;21.30;;;5.80;99.90;;;;;;486279;244;27478;-70
2022/03/16 05:36:29;;;;;;;34.15;18.50;;;5.80;99.90;;;;;;486269;244;27376;-70
2022/03/16 05:38:31;;;;;;;33.65;19.73;;;5.90;99.90;;;;;;486327;244;27472;-71
2022/03/16 05:40:32;;;;;;;38.35;21.23;;;5.80;99.90;;;;;;486311;243;27900;-74
2022/03/16 05:42:33;;;;;;;35.05;21.05;;;5.80;99.90;;;;;;486256;244;27382;-70
2022/03/16 05:44:34;;;;;;;40.33;22.37;;;5.80;99.90;;;;;;486267;244;27446;-74
2022/03/16 05:46:35;;;;;;;40.42;23.58;;;5.70;99.90;;;;;;486309;244;27424;-75
2022/03/16 05:48:36;;;;;;;40.85;21.12;;;5.70;99.90;;;;;;486307;244;27466;-74
2022/03/16 05:50:40;;;;;;;42.65;23.80;;;5.70;99.90;;;;;;486267;243;27910;-70
2022/03/16 05:52:40;;;;;;;40.53;21.60;;;5.80;99.90;;;;;;486269;243;27461;-73
2022/03/16 05:54:40;;;;;;;36.20;22.40;;;5.80;99.90;;;;;;486253;243;27425;-71
2022/03/16 05:56:41;;;;;;;41.83;23.10;;;5.70;99.90;;;;;;486258;244;27754;-73
2022/03/16 05:58:43;;;;;;;41.90;23.52;;;5.80;99.90;;;;;;486285;244;27373;-70
2022/03/16 06:00:45;;;;;;;42.13;22.65;;;5.80;99.90;;;;;;486264;244;27930;-72
2022/03/16 06:02:45;;;;;;;43.78;24.20;;;5.80;99.90;;;;;;486240;243;27413;-70
2022/03/16 06:04:47;;;;;;;40.72;23.95;;;5.80;99.90;;;;;;486259;243;27500;-70
2022/03/16 06:06:48;;;;;;;44.25;23.12;;;5.70;99.90;;;;;;486255;243;27742;-73
2022/03/16 06:08:49;;;;;;;45.90;25.02;;;5.80;99.90;;;;;;486229;244;27383;-73
2022/03/16 06:10:50;;;;;;;44.55;25.90;;;5.70;99.90;;;;;;486275;243;27863;-73
2022/03/16 06:12:52;;;;;;;43.65;24.42;;;5.70;99.90;;;;;;486240;244;27381;-71
2022/03/16 06:14:53;;;;;;;42.50;23.83;;;5.70;99.90;;;;;;486239;244;27498;-72
2022/03/16 06:16:54;;;;;;;39.95;23.77;;;5.70;99.90;;;;;;486238;243;27739;-74
2022/03/16 06:18:55;;;;;;;43.97;24.52;;;5.80;99.90;;;;;;486238;244;27394;-74
2022/03/16 06:20:57;;;;;;;41.55;24.27;;;5.70;99.90;;;;;;486270;244;27892;-73
2022/03/16 06:22:58;;;;;;;46.70;25.10;;;5.80;99.90;;;;;;486269;244;27489;-72
2022/03/16 06:24:59;;;;;;;34.88;21.00;;;5.90;99.90;;;;;;486263;243;27401;-71
2022/03/16 06:27:01;;;;;;;37.80;22.13;;;5.90;99.90;;;;;;486273;243;27417;-78
2022/03/16 06:29:02;;;;;;;34.47;21.17;;;5.90;99.90;;;;;;486288;244;27939;-72
2022/03/16 06:31:03;;;;;;;36.28;20.62;;;6.00;99.90;;;;;;486257;243;27944;-74
2022/03/16 06:33:04;;;;;;;32.40;18.77;;;6.00;99.90;;;;;;486302;244;27814;-72
2022/03/16 06:35:06;;;;;;;38.78;21.45;;;6.00;99.90;;;;;;486261;244;29050;-72
2022/03/16 06:37:07;;;;;;;34.92;19.12;;;6.00;99.90;;;;;;486255;243;27490;-73
2022/03/16 06:39:08;;;;;;;31.55;18.83;;;6.00;99.90;;;;;;486276;244;27355;-70
2022/03/16 06:41:10;;;;;;;37.63;20.60;;;6.00;99.90;;;;;;486275;244;27489;-70
2022/03/16 06:43:11;;;;;;;36.15;20.30;;;6.00;99.90;;;;;;486281;244;27402;-74
2022/03/16 06:45:12;;;;;;;32.47;19.10;;;6.00;99.90;;;;;;486281;244;27861;-70
2022/03/16 06:47:13;;;;;;;29.40;19.60;;;6.10;99.90;;;;;;486264;243;27397;-70
2022/03/16 06:49:15;;;;;;;32.70;20.00;;;6.10;99.90;;;;;;486255;243;27386;-72
2022/03/16 06:51:17;;;;;;;32.45;19.90;;;6.10;99.90;;;;;;486281;244;27429;-74
2022/03/16 06:53:18;;;;;;;33.25;20.37;;;6.10;99.90;;;;;;486293;244;27361;-72
2022/03/16 06:55:20;;;;;;;32.23;19.03;;;6.20;99.90;;;;;;486263;244;27478;-75
2022/03/16 06:57:21;;;;;;;29.98;18.65;;;6.20;99.90;;;;;;486279;244;29155;-72
2022/03/16 06:59:22;;;;;;;31.15;18.33;;;6.20;99.90;;;;;;486288;244;27931;-70
2022/03/16 07:01:24;;;;;;;29.25;17.42;;;6.30;99.90;;;;;;485939;243;27503;-72
2022/03/16 07:03:25;;;;;;;26.90;17.90;;;6.30;99.90;;;;;;485752;243;27358;-70
2022/03/16 07:05:26;;;;;;;33.93;21.00;;;6.30;99.90;;;;;;486277;243;27449;-73
2022/03/16 07:07:27;;;;;;;28.70;18.50;;;6.10;99.90;;;;;;486283;244;29590;-73
2022/03/16 07:09:32;;;;;;;32.63;19.40;;;6.20;99.90;;;;;;486310;244;28420;-73
2022/03/16 07:11:30;;;;;;;31.23;18.12;;;6.30;99.90;;;;;;486291;243;28671;-69
2022/03/16 07:13:31;;;;;;;26.45;16.65;;;6.30;99.90;;;;;;486297;244;27374;-70
2022/03/16 07:15:32;;;;;;;29.05;17.30;;;6.30;99.90;;;;;;486271;244;27421;-70
2022/03/16 07:17:33;;;;;;;27.10;17.37;;;6.30;99.90;;;;;;486319;244;27446;-70
2022/03/16 07:19:35;;;;;;;26.20;16.77;;;6.40;99.90;;;;;;486329;244;29224;-70
2022/03/16 07:21:37;;;;;;;26.53;16.93;;;6.40;99.90;;;;;;486372;243;28992;-74
2022/03/16 07:23:37;;;;;;;26.55;17.30;;;6.40;99.90;;;;;;486359;244;28493;-74
2022/03/16 07:25:39;;;;;;;27.70;18.00;;;6.40;99.90;;;;;;486364;244;27503;-74
2022/03/16 07:27:40;;;;;;;27.37;16.98;;;6.40;99.90;;;;;;486348;244;28780;-73
2022/03/16 07:29:41;;;;;;;27.70;17.37;;;6.50;99.90;;;;;;486329;243;27951;-73
2022/03/16 07:31:42;;;;;;;31.97;18.60;;;6.50;99.90;;;;;;486326;244;28453;-71
2022/03/16 07:33:44;;;;;;;31.00;18.83;;;6.40;99.90;;;;;;486303;244;27858;-70
2022/03/16 07:35:46;;;;;;;28.67;17.53;;;6.40;99.90;;;;;;486320;244;27758;-71
2022/03/16 07:37:47;;;;;;;27.53;17.67;;;6.50;99.90;;;;;;486305;244;28757;-75
2022/03/16 07:39:47;;;;;;;28.60;18.00;;;6.60;99.90;;;;;;486323;243;27730;-73
2022/03/16 07:41:49;;;;;;;29.80;18.70;;;6.60;99.90;;;;;;486347;243;27830;-74
2022/03/16 07:43:50;;;;;;;28.90;17.23;;;6.60;99.90;;;;;;486339;244;27812;-73
2022/03/16 07:45:52;;;;;;;29.50;17.83;;;6.60;99.90;;;;;;486332;244;28185;-73
2022/03/16 07:47:56;;;;;;;31.00;17.53;;;6.60;99.90;;;;;;486332;243;28306;-70
2022/03/16 07:49:59;;;;;;;26.90;17.20;;;6.70;99.90;;;;;;486200;244;28053;-70
2022/03/16 07:52:01;;;;;;;25.13;16.10;;;6.80;99.90;;;;;;486319;244;27873;-70
2022/03/16 07:54:05;;;;;;;31.43;17.87;;;6.80;99.90;;;;;;486262;244;28443;-70
2022/03/16 07:56:06;;;;;;;31.33;18.60;;;6.90;99.90;;;;;;486310;243;28011;-76
2022/03/16 07:58:08;;;;;;;27.30;16.80;;;6.80;99.90;;;;;;486340;244;27924;-70
2022/03/16 08:00:10;;;;;;;28.07;17.40;;;6.80;99.90;;;;;;486325;244;27916;-71
2022/03/16 08:02:16;;;;;;;26.27;16.30;;;6.90;99.90;;;;;;486313;244;28382;-70
2022/03/16 08:04:17;;;;;;;23.10;15.10;;;7.10;99.90;;;;;;486302;244;27848;-69
2022/03/16 08:06:21;;;;;;;28.77;17.27;;;7.10;99.90;;;;;;486297;244;27397;-74
2022/03/16 08:08:22;;;;;;;26.63;16.53;;;7.00;99.90;;;;;;486324;244;27857;-70
2022/03/16 08:10:23;;;;;;;27.00;17.40;;;7.10;99.90;;;;;;486296;243;28365;-74
2022/03/16 08:12:24;;;;;;;27.90;16.63;;;7.10;99.90;;;;;;486286;244;28302;-73
2022/03/16 08:14:26;;;;;;;25.07;15.67;;;7.10;99.90;;;;;;486290;243;28278;-74
2022/03/16 08:16:27;;;;;;;24.10;15.17;;;7.20;99.90;;;;;;486283;244;27857;-73
2022/03/16 08:18:29;;;;;;;28.63;17.13;;;7.40;99.90;;;;;;486312;244;27857;-73
2022/03/16 08:20:29;;;;;;;27.10;17.20;;;7.30;99.90;;;;;;486318;243;27838;-73
2022/03/16 08:22:31;;;;;;;29.40;18.43;;;7.30;99.90;;;;;;486262;244;27818;-73
2022/03/16 08:24:35;;;;;;;30.30;19.30;;;7.40;99.90;;;;;;486299;243;27974;-73
2022/03/16 08:26:36;;;;;;;28.27;17.93;;;7.40;99.90;;;;;;486335;244;27988;-72
2022/03/16 08:28:37;;;;;;;25.83;16.40;;;7.50;99.90;;;;;;486343;244;28365;-70
2022/03/16 08:30:42;;;;;;;24.53;15.40;;;7.70;99.90;;;;;;486358;244;28098;-73
2022/03/16 08:32:43;;;;;;;23.40;15.33;;;7.80;99.90;;;;;;486341;244;27869;-71
2022/03/16 08:34:57;;;;;;;26.43;15.60;;;7.80;99.90;;;;;;486343;244;28333;-71
2022/03/16 08:37:00;;;;;;;30.27;17.80;;;7.80;99.90;;;;;;486338;243;28213;-71
2022/03/16 08:39:06;;;;;;;27.67;16.90;;;7.70;99.90;;;;;;486398;244;28290;-71
2022/03/16 08:41:08;;;;;;;31.70;19.70;;;7.60;99.90;;;;;;486322;244;27492;-70
2022/03/16 08:43:15;;;;;;;26.87;16.80;;;7.60;99.90;;;;;;486322;243;28352;-73
2022/03/16 08:45:17;;;;;;;25.83;16.70;;;7.70;99.90;;;;;;486344;244;27795;-70
2022/03/16 08:47:24;;;;;;;22.47;14.83;;;7.80;99.90;;;;;;486328;243;28002;-73
2022/03/16 08:49:25;;;;;;;24.57;17.00;;;8.00;99.90;;;;;;486327;244;27644;-71
2022/03/16 08:51:30;;;;;;;24.60;15.47;;;7.90;99.90;;;;;;486315;244;28600;-73
2022/03/16 08:53:31;;;;;;;24.43;15.53;;;8.00;99.90;;;;;;486364;244;27873;-71
2022/03/16 08:55:38;;;;;;;29.27;17.50;;;8.00;99.90;;;;;;486371;244;28460;-73
2022/03/16 08:57:42;;;;;;;28.50;18.67;;;7.90;99.90;;;;;;486353;244;28012;-70
2022/03/16 08:59:48;;;;;;;27.57;17.50;;;7.70;99.90;;;;;;486349;243;28357;-74
2022/03/16 09:01:50;;;;;;;27.77;17.20;;;7.80;99.90;;;;;;486321;244;27885;-71
2022/03/16 09:03:57;;;;;;;24.50;15.70;;;7.90;99.90;;;;;;486341;244;27982;-73
2022/03/16 09:05:59;;;;;;;29.70;18.13;;;8.10;99.90;;;;;;486357;244;27733;-72
2022/03/16 09:08:00;;;;;;;24.67;15.20;;;8.00;99.90;;;;;;486332;243;27829;-73
2022/03/16 09:10:02;;;;;;;26.90;16.40;;;8.20;99.90;;;;;;486352;244;27847;-70
2022/03/16 09:12:06;;;;;;;29.70;17.50;;;8.10;99.90;;;;;;486359;244;28122;-73
2022/03/16 09:14:07;;;;;;;33.30;19.10;;;8.20;99.90;;;;;;486362;244;27930;-71
2022/03/16 09:16:10;;;;;;;29.73;16.83;;;8.20;99.90;;;;;;486336;243;28157;-73
2022/03/16 09:18:11;;;;;;;30.83;17.60;;;8.30;99.90;;;;;;486382;243;27640;-71
2022/03/16 09:20:16;;;;;;;29.80;17.13;;;8.30;99.90;;;;;;486363;244;28309;-73
2022/03/16 09:22:26;;;;;;;26.60;15.93;;;8.40;99.90;;;;;;486368;243;27970;-71
2022/03/16 09:24:27;;;;;;;27.37;16.50;;;8.60;99.90;;;;;;486354;243;27959;-71
2022/03/16 09:26:31;;;;;;;27.33;16.50;;;8.70;99.90;;;;;;486336;244;28040;-72
2022/03/16 09:28:33;;;;;;;30.10;16.57;;;8.70;99.90;;;;;;486336;243;27907;-78
2022/03/16 09:30:34;;;;;;;28.83;17.20;;;8.50;99.90;;;;;;486342;244;28406;-71
2022/03/16 09:32:35;;;;;;;33.20;18.63;;;8.50;99.90;;;;;;486348;244;28507;-73
2022/03/16 09:34:45;;;;;;;37.03;20.43;;;8.40;99.90;;;;;;486345;243;28201;-73
2022/03/16 09:36:46;;;;;;;33.30;18.77;;;8.40;99.90;;;;;;486353;244;27730;-71
2022/03/16 09:40:57;;;;;;;36.10;20.00;;;8.40;99.90;;;;;;486347;243;27939;-71
2022/03/16 09:43:01;;;;;;;35.43;20.03;;;8.40;99.90;;;;;;486348;243;28321;-71
2022/03/16 09:45:02;;;;;;;33.67;19.00;;;8.30;99.90;;;;;;486357;244;27543;-72
2022/03/16 09:49:11;;;;;;;33.43;18.53;;;8.50;99.90;;;;;;486378;243;27832;-71
2022/03/16 09:51:12;;;;;;;30.43;18.50;;;8.70;99.90;;;;;;486316;244;28202;-74
2022/03/16 09:53:13;;;;;;;32.87;17.87;;;8.70;99.90;;;;;;486342;244;28199;-73
2022/03/16 09:55:26;;;;;;;33.37;18.60;;;8.70;99.90;;;;;;486341;244;28276;-74
2022/03/16 09:57:28;;;;;;;31.60;17.67;;;8.70;99.90;;;;;;486340;244;27916;-74
2022/03/16 09:59:31;;;;;;;29.00;18.30;;;8.90;99.90;;;;;;486350;244;28307;-71
2022/03/16 10:01:35;;;;;;;35.83;20.00;;;8.90;99.90;;;;;;486332;244;27864;-71
2022/03/16 10:03:33;;;;;;;33.10;18.30;;;8.60;99.90;;;;;;486333;244;28313;-74
2022/03/16 10:05:35;;;;;;;29.43;17.67;;;8.50;99.90;;;;;;486330;244;28351;-74
2022/03/16 10:07:37;;;;;;;31.00;17.20;;;8.80;99.90;;;;;;486325;244;28108;-74
2022/03/16 10:14:18;;;;;;;30.53;17.50;;;9.00;99.90;;;;;;486333;244;28241;-77
2022/03/16 10:16:19;;;;;;;30.87;18.00;;;9.00;99.90;;;;;;486340;244;27766;-71
2022/03/16 10:18:20;;;;;;;27.10;16.50;;;9.10;99.90;;;;;;486331;243;27666;-74
2022/03/16 10:20:26;;;;;;;22.03;14.37;;;9.40;99.90;;;;;;486327;244;28237;-74
2022/03/16 10:22:30;;;;;;;30.40;15.70;;;9.40;99.90;;;;;;486362;243;27957;-73
2022/03/16 10:24:31;;;;;;;25.77;16.07;;;9.40;99.90;;;;;;486312;243;28263;-72
2022/03/16 10:26:34;;;;;;;26.30;15.37;;;9.30;99.90;;;;;;486315;244;27968;-71
2022/03/16 10:28:35;;;;;;;39.17;20.63;;;9.40;99.90;;;;;;486321;243;27766;-73
2022/03/16 10:30:45;;;;;;;32.50;18.17;;;9.20;99.90;;;;;;486332;244;28347;-73
2022/03/16 10:32:47;;;;;;;32.53;18.70;;;9.50;99.90;;;;;;486334;244;28236;-74
2022/03/16 10:34:56;;;;;;;30.87;17.70;;;9.20;99.90;;;;;;486319;244;27952;-74
2022/03/16 10:36:59;;;;;;;29.77;17.10;;;9.10;99.90;;;;;;486353;243;28161;-72